sensor_id;sensor_type;location;lat;lon;timestamp;P1;durP1;ratioP1;P2;durP2;ratioP2
69569;SDS011;56781;42.292;23.146;2022-08-11T00:00:35;13.65;;;8.57;;
69569;SDS011;56781;42.292;23.146;2022-08-11T00:03:12;15.20;;;8.50;;
69569;SDS011;56781;42.292;23.146;2022-08-11T00:05:47;13.95;;;8.35;;
69569;SDS011;56781;42.292;23.146;2022-08-11T00:08:24;16.55;;;7.95;;
69569;SDS011;56781;42.292;23.146;2022-08-11T00:10:53;14.85;;;8.23;;
69569;SDS011;56781;42.292;23.146;2022-08-11T00:16:09;15.57;;;8.87;;
69569;SDS011;56781;42.292;23.146;2022-08-11T00:18:40;16.48;;;9.00;;
69569;SDS011;56781;42.292;23.146;2022-08-11T00:21:10;15.45;;;8.98;;
69569;SDS011;56781;42.292;23.146;2022-08-11T00:23:44;15.50;;;8.80;;
69569;SDS011;56781;42.292;23.146;2022-08-11T00:26:18;17.48;;;9.20;;
69569;SDS011;56781;42.292;23.146;2022-08-11T00:28:45;14.07;;;8.37;;
69569;SDS011;56781;42.292;23.146;2022-08-11T00:31:22;14.65;;;8.63;;
69569;SDS011;56781;42.292;23.146;2022-08-11T00:33:53;12.20;;;7.05;;
69569;SDS011;56781;42.292;23.146;2022-08-11T00:36:24;16.52;;;8.02;;
69569;SDS011;56781;42.292;23.146;2022-08-11T00:38:56;13.65;;;7.50;;
69569;SDS011;56781;42.292;23.146;2022-08-11T00:41:31;13.77;;;8.43;;
69569;SDS011;56781;42.292;23.146;2022-08-11T00:46:52;14.95;;;8.88;;
69569;SDS011;56781;42.292;23.146;2022-08-11T00:58:45;12.77;;;8.00;;
69569;SDS011;56781;42.292;23.146;2022-08-11T01:47:55;11.45;;;6.93;;
69569;SDS011;56781;42.292;23.146;2022-08-11T01:50:50;12.27;;;6.93;;
69569;SDS011;56781;42.292;23.146;2022-08-11T01:53:53;13.00;;;7.90;;
69569;SDS011;56781;42.292;23.146;2022-08-11T01:56:32;15.57;;;8.13;;
69569;SDS011;56781;42.292;23.146;2022-08-11T02:07:55;12.37;;;7.00;;
69569;SDS011;56781;42.292;23.146;2022-08-11T02:10:37;14.43;;;7.32;;
69569;SDS011;56781;42.292;23.146;2022-08-11T02:13:35;15.80;;;7.30;;
69569;SDS011;56781;42.292;23.146;2022-08-11T02:16:16;13.45;;;7.57;;
69569;SDS011;56781;42.292;23.146;2022-08-11T02:22:05;15.23;;;7.73;;
69569;SDS011;56781;42.292;23.146;2022-08-11T02:24:59;16.80;;;8.00;;
69569;SDS011;56781;42.292;23.146;2022-08-11T02:27:42;14.25;;;8.05;;
69569;SDS011;56781;42.292;23.146;2022-08-11T02:30:14;16.38;;;7.75;;
69569;SDS011;56781;42.292;23.146;2022-08-11T02:38:52;16.75;;;8.23;;
69569;SDS011;56781;42.292;23.146;2022-08-11T02:41:32;13.20;;;7.88;;
69569;SDS011;56781;42.292;23.146;2022-08-11T02:45:15;15.15;;;8.23;;
69569;SDS011;56781;42.292;23.146;2022-08-11T02:48:17;14.30;;;8.18;;
69569;SDS011;56781;42.292;23.146;2022-08-11T02:54:05;14.88;;;8.48;;
69569;SDS011;56781;42.292;23.146;2022-08-11T02:59:27;12.85;;;8.13;;
69569;SDS011;56781;42.292;23.146;2022-08-11T03:07:39;14.60;;;8.40;;
69569;SDS011;56781;42.292;23.146;2022-08-11T03:10:21;15.38;;;8.25;;
69569;SDS011;56781;42.292;23.146;2022-08-11T03:12:58;13.00;;;8.20;;
69569;SDS011;56781;42.292;23.146;2022-08-11T03:16:20;12.52;;;7.55;;
69569;SDS011;56781;42.292;23.146;2022-08-11T03:19:18;14.33;;;8.87;;
69569;SDS011;56781;42.292;23.146;2022-08-11T03:24:42;13.95;;;8.32;;
69569;SDS011;56781;42.292;23.146;2022-08-11T03:27:40;15.25;;;8.18;;
69569;SDS011;56781;42.292;23.146;2022-08-11T03:46:50;10.00;;;6.38;;
69569;SDS011;56781;42.292;23.146;2022-08-11T03:52:22;11.88;;;7.22;;
69569;SDS011;56781;42.292;23.146;2022-08-11T03:55:14;12.27;;;7.13;;
69569;SDS011;56781;42.292;23.146;2022-08-11T04:12:11;14.38;;;7.80;;
69569;SDS011;56781;42.292;23.146;2022-08-11T04:27:18;16.25;;;8.93;;
69569;SDS011;56781;42.292;23.146;2022-08-11T04:30:16;16.42;;;8.73;;
69569;SDS011;56781;42.292;23.146;2022-08-11T04:33:01;17.17;;;8.93;;
69569;SDS011;56781;42.292;23.146;2022-08-11T04:50:53;17.60;;;9.57;;
69569;SDS011;56781;42.292;23.146;2022-08-11T04:53:49;18.77;;;10.20;;
69569;SDS011;56781;42.292;23.146;2022-08-11T04:56:38;16.05;;;9.38;;
69569;SDS011;56781;42.292;23.146;2022-08-11T05:05:26;14.00;;;8.77;;
69569;SDS011;56781;42.292;23.146;2022-08-11T05:16:57;13.63;;;8.23;;
69569;SDS011;56781;42.292;23.146;2022-08-11T05:19:48;12.50;;;7.47;;
69569;SDS011;56781;42.292;23.146;2022-08-11T05:22:33;11.57;;;7.28;;
69569;SDS011;56781;42.292;23.146;2022-08-11T05:25:28;13.38;;;7.93;;
69569;SDS011;56781;42.292;23.146;2022-08-11T05:28:37;14.95;;;7.75;;
69569;SDS011;56781;42.292;23.146;2022-08-11T05:31:48;13.60;;;7.63;;
69569;SDS011;56781;42.292;23.146;2022-08-11T05:34:46;12.32;;;7.35;;
69569;SDS011;56781;42.292;23.146;2022-08-11T05:37:21;14.73;;;8.73;;
69569;SDS011;56781;42.292;23.146;2022-08-11T05:40:06;13.70;;;8.75;;
69569;SDS011;56781;42.292;23.146;2022-08-11T05:43:00;14.35;;;8.60;;
69569;SDS011;56781;42.292;23.146;2022-08-11T05:46:00;14.40;;;8.87;;
69569;SDS011;56781;42.292;23.146;2022-08-11T05:48:47;19.83;;;10.00;;
69569;SDS011;56781;42.292;23.146;2022-08-11T05:51:35;13.70;;;8.88;;
69569;SDS011;56781;42.292;23.146;2022-08-11T05:54:38;14.23;;;9.10;;
69569;SDS011;56781;42.292;23.146;2022-08-11T05:57:32;18.20;;;10.32;;
69569;SDS011;56781;42.292;23.146;2022-08-11T06:00:20;14.70;;;9.53;;
69569;SDS011;56781;42.292;23.146;2022-08-11T06:02:53;15.15;;;9.40;;
69569;SDS011;56781;42.292;23.146;2022-08-11T06:05:31;15.18;;;8.55;;
69569;SDS011;56781;42.292;23.146;2022-08-11T06:08:09;15.43;;;8.63;;
69569;SDS011;56781;42.292;23.146;2022-08-11T06:10:39;13.45;;;8.13;;
69569;SDS011;56781;42.292;23.146;2022-08-11T06:13:09;12.53;;;8.30;;
69569;SDS011;56781;42.292;23.146;2022-08-11T06:15:44;12.35;;;8.13;;
69569;SDS011;56781;42.292;23.146;2022-08-11T06:18:15;13.13;;;8.18;;
69569;SDS011;56781;42.292;23.146;2022-08-11T06:20:49;15.30;;;8.93;;
69569;SDS011;56781;42.292;23.146;2022-08-11T06:23:17;12.18;;;8.63;;
69569;SDS011;56781;42.292;23.146;2022-08-11T06:25:52;14.30;;;8.97;;
69569;SDS011;56781;42.292;23.146;2022-08-11T06:28:32;13.63;;;8.18;;
69569;SDS011;56781;42.292;23.146;2022-08-11T06:31:14;11.73;;;8.52;;
69569;SDS011;56781;42.292;23.146;2022-08-11T06:36:30;13.55;;;9.20;;
69569;SDS011;56781;42.292;23.146;2022-08-11T06:41:53;13.45;;;7.93;;
69569;SDS011;56781;42.292;23.146;2022-08-11T06:44:46;11.95;;;8.05;;
69569;SDS011;56781;42.292;23.146;2022-08-11T06:47:26;12.18;;;7.65;;
69569;SDS011;56781;42.292;23.146;2022-08-11T06:49:54;12.27;;;8.52;;
69569;SDS011;56781;42.292;23.146;2022-08-11T06:52:42;11.87;;;8.10;;
69569;SDS011;56781;42.292;23.146;2022-08-11T06:55:13;12.02;;;8.48;;
69569;SDS011;56781;42.292;23.146;2022-08-11T06:58:26;14.20;;;8.50;;
69569;SDS011;56781;42.292;23.146;2022-08-11T07:01:14;10.93;;;7.95;;
69569;SDS011;56781;42.292;23.146;2022-08-11T07:03:47;11.32;;;7.82;;
69569;SDS011;56781;42.292;23.146;2022-08-11T07:19:34;9.85;;;7.00;;
69569;SDS011;56781;42.292;23.146;2022-08-11T07:22:39;8.70;;;6.30;;
69569;SDS011;56781;42.292;23.146;2022-08-11T07:25:27;8.98;;;6.15;;
69569;SDS011;56781;42.292;23.146;2022-08-11T07:28:17;11.32;;;7.07;;
69569;SDS011;56781;42.292;23.146;2022-08-11T07:31:07;9.27;;;6.13;;
69569;SDS011;56781;42.292;23.146;2022-08-11T07:36:32;11.37;;;6.90;;
69569;SDS011;56781;42.292;23.146;2022-08-11T07:39:03;9.30;;;6.30;;
69569;SDS011;56781;42.292;23.146;2022-08-11T07:41:37;8.90;;;6.93;;
69569;SDS011;56781;42.292;23.146;2022-08-11T07:44:04;10.50;;;7.25;;
69569;SDS011;56781;42.292;23.146;2022-08-11T07:46:37;9.90;;;7.20;;
69569;SDS011;56781;42.292;23.146;2022-08-11T07:49:45;9.47;;;6.23;;
69569;SDS011;56781;42.292;23.146;2022-08-11T07:52:34;9.00;;;6.20;;
69569;SDS011;56781;42.292;23.146;2022-08-11T07:55:12;10.23;;;6.82;;
69569;SDS011;56781;42.292;23.146;2022-08-11T07:57:45;9.82;;;6.30;;
69569;SDS011;56781;42.292;23.146;2022-08-11T08:00:46;8.55;;;5.72;;
69569;SDS011;56781;42.292;23.146;2022-08-11T08:03:35;13.27;;;7.20;;
69569;SDS011;56781;42.292;23.146;2022-08-11T08:06:23;8.90;;;6.30;;
69569;SDS011;56781;42.292;23.146;2022-08-11T08:09:10;10.48;;;6.93;;
69569;SDS011;56781;42.292;23.146;2022-08-11T08:11:58;10.20;;;6.43;;
69569;SDS011;56781;42.292;23.146;2022-08-11T08:14:45;9.25;;;6.70;;
69569;SDS011;56781;42.292;23.146;2022-08-11T08:17:31;9.83;;;6.23;;
69569;SDS011;56781;42.292;23.146;2022-08-11T08:20:42;10.30;;;6.15;;
69569;SDS011;56781;42.292;23.146;2022-08-11T08:23:16;7.75;;;6.03;;
69569;SDS011;56781;42.292;23.146;2022-08-11T08:25:59;8.63;;;5.93;;
69569;SDS011;56781;42.292;23.146;2022-08-11T08:28:29;7.88;;;6.20;;
69569;SDS011;56781;42.292;23.146;2022-08-11T08:30:58;9.30;;;6.13;;
69569;SDS011;56781;42.292;23.146;2022-08-11T08:33:29;8.50;;;5.93;;
69569;SDS011;56781;42.292;23.146;2022-08-11T08:35:58;8.57;;;6.22;;
69569;SDS011;56781;42.292;23.146;2022-08-11T08:38:41;9.73;;;6.07;;
69569;SDS011;56781;42.292;23.146;2022-08-11T08:41:18;8.48;;;6.13;;
69569;SDS011;56781;42.292;23.146;2022-08-11T08:43:51;7.47;;;5.87;;
69569;SDS011;56781;42.292;23.146;2022-08-11T08:46:41;8.80;;;5.70;;
69569;SDS011;56781;42.292;23.146;2022-08-11T08:49:15;7.68;;;5.70;;
69569;SDS011;56781;42.292;23.146;2022-08-11T08:51:44;7.70;;;5.70;;
69569;SDS011;56781;42.292;23.146;2022-08-11T08:54:29;8.00;;;5.55;;
69569;SDS011;56781;42.292;23.146;2022-08-11T08:57:06;7.60;;;5.63;;
69569;SDS011;56781;42.292;23.146;2022-08-11T08:59:36;7.43;;;5.53;;
69569;SDS011;56781;42.292;23.146;2022-08-11T09:02:15;7.80;;;5.25;;
69569;SDS011;56781;42.292;23.146;2022-08-11T09:04:59;8.10;;;5.25;;
69569;SDS011;56781;42.292;23.146;2022-08-11T09:07:29;7.65;;;5.50;;
69569;SDS011;56781;42.292;23.146;2022-08-11T09:10:06;7.57;;;5.40;;
69569;SDS011;56781;42.292;23.146;2022-08-11T09:12:34;9.45;;;5.60;;
69569;SDS011;56781;42.292;23.146;2022-08-11T09:15:05;8.10;;;5.82;;
69569;SDS011;56781;42.292;23.146;2022-08-11T09:17:35;7.82;;;5.68;;
69569;SDS011;56781;42.292;23.146;2022-08-11T09:20:06;8.18;;;5.55;;
69569;SDS011;56781;42.292;23.146;2022-08-11T09:22:36;7.57;;;5.87;;
69569;SDS011;56781;42.292;23.146;2022-08-11T09:25:44;9.52;;;6.00;;
69569;SDS011;56781;42.292;23.146;2022-08-11T09:28:30;10.30;;;6.07;;
69569;SDS011;56781;42.292;23.146;2022-08-11T09:30:58;7.85;;;6.05;;
69569;SDS011;56781;42.292;23.146;2022-08-11T09:33:26;6.88;;;5.47;;
69569;SDS011;56781;42.292;23.146;2022-08-11T09:35:55;7.30;;;5.50;;
69569;SDS011;56781;42.292;23.146;2022-08-11T09:38:43;10.10;;;5.93;;
69569;SDS011;56781;42.292;23.146;2022-08-11T09:41:29;10.20;;;5.88;;
69569;SDS011;56781;42.292;23.146;2022-08-11T09:44:18;7.95;;;5.60;;
69569;SDS011;56781;42.292;23.146;2022-08-11T09:47:03;8.40;;;5.75;;
69569;SDS011;56781;42.292;23.146;2022-08-11T09:49:43;7.60;;;5.60;;
69569;SDS011;56781;42.292;23.146;2022-08-11T09:52:11;8.52;;;5.85;;
69569;SDS011;56781;42.292;23.146;2022-08-11T09:54:43;8.23;;;5.85;;
69569;SDS011;56781;42.292;23.146;2022-08-11T09:57:13;8.85;;;5.90;;
69569;SDS011;56781;42.292;23.146;2022-08-11T10:00:03;7.63;;;5.85;;
69569;SDS011;56781;42.292;23.146;2022-08-11T10:02:42;6.90;;;5.40;;
69569;SDS011;56781;42.292;23.146;2022-08-11T10:05:13;7.93;;;5.70;;
69569;SDS011;56781;42.292;23.146;2022-08-11T10:08:01;7.32;;;5.80;;
69569;SDS011;56781;42.292;23.146;2022-08-11T10:10:30;8.77;;;5.50;;
69569;SDS011;56781;42.292;23.146;2022-08-11T10:13:03;6.75;;;5.38;;
69569;SDS011;56781;42.292;23.146;2022-08-11T10:15:53;7.30;;;5.60;;
69569;SDS011;56781;42.292;23.146;2022-08-11T10:18:40;6.88;;;4.80;;
69569;SDS011;56781;42.292;23.146;2022-08-11T10:21:09;7.03;;;5.80;;
69569;SDS011;56781;42.292;23.146;2022-08-11T10:23:40;7.05;;;5.47;;
69569;SDS011;56781;42.292;23.146;2022-08-11T10:26:31;8.77;;;5.45;;
69569;SDS011;56781;42.292;23.146;2022-08-11T10:29:20;7.67;;;5.57;;
69569;SDS011;56781;42.292;23.146;2022-08-11T10:32:10;6.88;;;5.20;;
69569;SDS011;56781;42.292;23.146;2022-08-11T10:35:05;7.15;;;5.38;;
69569;SDS011;56781;42.292;23.146;2022-08-11T10:37:35;7.78;;;5.47;;
69569;SDS011;56781;42.292;23.146;2022-08-11T10:40:22;7.00;;;5.35;;
69569;SDS011;56781;42.292;23.146;2022-08-11T10:42:51;7.00;;;5.13;;
69569;SDS011;56781;42.292;23.146;2022-08-11T10:45:33;6.63;;;4.95;;
69569;SDS011;56781;42.292;23.146;2022-08-11T10:48:40;7.05;;;4.97;;
69569;SDS011;56781;42.292;23.146;2022-08-11T10:51:08;7.40;;;5.60;;
69569;SDS011;56781;42.292;23.146;2022-08-11T10:54:01;7.53;;;4.95;;
69569;SDS011;56781;42.292;23.146;2022-08-11T10:56:46;9.20;;;4.73;;
69569;SDS011;56781;42.292;23.146;2022-08-11T10:59:31;6.20;;;4.75;;
69569;SDS011;56781;42.292;23.146;2022-08-11T11:02:00;9.25;;;5.40;;
69569;SDS011;56781;42.292;23.146;2022-08-11T11:04:31;6.13;;;4.78;;
69569;SDS011;56781;42.292;23.146;2022-08-11T11:07:07;7.43;;;5.20;;
69569;SDS011;56781;42.292;23.146;2022-08-11T11:09:49;6.10;;;4.87;;
69569;SDS011;56781;42.292;23.146;2022-08-11T11:12:22;7.13;;;5.43;;
69569;SDS011;56781;42.292;23.146;2022-08-11T11:15:20;6.63;;;5.03;;
69569;SDS011;56781;42.292;23.146;2022-08-11T11:18:10;6.93;;;5.18;;
69569;SDS011;56781;42.292;23.146;2022-08-11T11:20:50;6.45;;;5.13;;
69569;SDS011;56781;42.292;23.146;2022-08-11T11:25:59;6.93;;;4.93;;
69569;SDS011;56781;42.292;23.146;2022-08-11T11:31:26;7.75;;;5.32;;
69569;SDS011;56781;42.292;23.146;2022-08-11T11:36:49;6.63;;;5.23;;
69569;SDS011;56781;42.292;23.146;2022-08-11T11:39:20;6.78;;;5.07;;
69569;SDS011;56781;42.292;23.146;2022-08-11T11:41:51;7.93;;;5.13;;
69569;SDS011;56781;42.292;23.146;2022-08-11T11:44:20;7.43;;;5.35;;
69569;SDS011;56781;42.292;23.146;2022-08-11T11:46:48;8.50;;;5.47;;
69569;SDS011;56781;42.292;23.146;2022-08-11T11:49:17;6.80;;;5.13;;
69569;SDS011;56781;42.292;23.146;2022-08-11T11:51:48;6.60;;;5.00;;
69569;SDS011;56781;42.292;23.146;2022-08-11T11:54:21;6.53;;;4.85;;
69569;SDS011;56781;42.292;23.146;2022-08-11T11:56:51;6.90;;;5.15;;
69569;SDS011;56781;42.292;23.146;2022-08-11T11:59:20;9.10;;;5.90;;
69569;SDS011;56781;42.292;23.146;2022-08-11T12:02:08;7.30;;;5.03;;
69569;SDS011;56781;42.292;23.146;2022-08-11T12:04:39;7.05;;;5.22;;
69569;SDS011;56781;42.292;23.146;2022-08-11T12:07:08;5.63;;;4.15;;
69569;SDS011;56781;42.292;23.146;2022-08-11T12:09:55;5.32;;;3.88;;
69569;SDS011;56781;42.292;23.146;2022-08-11T12:12:23;7.28;;;4.45;;
69569;SDS011;56781;42.292;23.146;2022-08-11T12:15:10;5.93;;;4.40;;
69569;SDS011;56781;42.292;23.146;2022-08-11T12:17:38;5.63;;;4.10;;
69569;SDS011;56781;42.292;23.146;2022-08-11T12:20:06;8.43;;;4.40;;
69569;SDS011;56781;42.292;23.146;2022-08-11T12:22:54;5.18;;;3.60;;
69569;SDS011;56781;42.292;23.146;2022-08-11T12:29:03;5.00;;;3.40;;
69569;SDS011;56781;42.292;23.146;2022-08-11T12:31:32;5.30;;;3.50;;
69569;SDS011;56781;42.292;23.146;2022-08-11T12:34:02;5.13;;;3.17;;
69569;SDS011;56781;42.292;23.146;2022-08-11T12:36:32;4.50;;;3.00;;
69569;SDS011;56781;42.292;23.146;2022-08-11T12:39:04;5.75;;;3.80;;
69569;SDS011;56781;42.292;23.146;2022-08-11T12:41:49;6.13;;;3.50;;
69569;SDS011;56781;42.292;23.146;2022-08-11T12:44:35;6.38;;;3.00;;
69569;SDS011;56781;42.292;23.146;2022-08-11T12:47:21;6.13;;;3.00;;
69569;SDS011;56781;42.292;23.146;2022-08-11T12:49:49;4.47;;;2.83;;
69569;SDS011;56781;42.292;23.146;2022-08-11T12:52:48;4.47;;;2.80;;
69569;SDS011;56781;42.292;23.146;2022-08-11T12:55:20;4.63;;;2.90;;
69569;SDS011;56781;42.292;23.146;2022-08-11T12:58:29;4.18;;;2.50;;
69569;SDS011;56781;42.292;23.146;2022-08-11T13:00:56;5.10;;;2.88;;
69569;SDS011;56781;42.292;23.146;2022-08-11T13:03:41;4.97;;;2.90;;
69569;SDS011;56781;42.292;23.146;2022-08-11T13:06:27;4.95;;;3.15;;
69569;SDS011;56781;42.292;23.146;2022-08-11T13:08:54;5.30;;;2.90;;
69569;SDS011;56781;42.292;23.146;2022-08-11T13:11:26;4.78;;;2.50;;
69569;SDS011;56781;42.292;23.146;2022-08-11T13:14:22;4.97;;;2.92;;
69569;SDS011;56781;42.292;23.146;2022-08-11T13:16:53;4.88;;;2.90;;
69569;SDS011;56781;42.292;23.146;2022-08-11T13:19:40;4.88;;;2.63;;
69569;SDS011;56781;42.292;23.146;2022-08-11T13:22:15;4.67;;;2.63;;
69569;SDS011;56781;42.292;23.146;2022-08-11T13:24:44;5.53;;;2.90;;
69569;SDS011;56781;42.292;23.146;2022-08-11T13:27:14;7.25;;;2.90;;
69569;SDS011;56781;42.292;23.146;2022-08-11T13:29:43;7.18;;;2.90;;
69569;SDS011;56781;42.292;23.146;2022-08-11T13:32:12;6.15;;;3.05;;
69569;SDS011;56781;42.292;23.146;2022-08-11T13:34:41;4.63;;;2.90;;
69569;SDS011;56781;42.292;23.146;2022-08-11T13:37:09;4.82;;;2.63;;
69569;SDS011;56781;42.292;23.146;2022-08-11T13:39:41;5.25;;;3.63;;
69569;SDS011;56781;42.292;23.146;2022-08-11T13:42:13;5.30;;;3.63;;
69569;SDS011;56781;42.292;23.146;2022-08-11T13:44:45;5.53;;;3.78;;
69569;SDS011;56781;42.292;23.146;2022-08-11T13:47:13;6.00;;;3.67;;
69569;SDS011;56781;42.292;23.146;2022-08-11T13:49:41;7.13;;;3.97;;
69569;SDS011;56781;42.292;23.146;2022-08-11T13:52:11;6.07;;;3.90;;
69569;SDS011;56781;42.292;23.146;2022-08-11T13:54:41;6.22;;;3.83;;
69569;SDS011;56781;42.292;23.146;2022-08-11T13:57:11;5.85;;;4.18;;
69569;SDS011;56781;42.292;23.146;2022-08-11T14:00:02;5.30;;;3.90;;
69569;SDS011;56781;42.292;23.146;2022-08-11T14:02:48;6.20;;;3.78;;
69569;SDS011;56781;42.292;23.146;2022-08-11T14:05:19;5.38;;;3.88;;
69569;SDS011;56781;42.292;23.146;2022-08-11T14:07:52;5.32;;;3.80;;
69569;SDS011;56781;42.292;23.146;2022-08-11T14:10:26;5.78;;;4.03;;
69569;SDS011;56781;42.292;23.146;2022-08-11T14:13:19;5.83;;;4.00;;
69569;SDS011;56781;42.292;23.146;2022-08-11T14:16:35;6.88;;;4.03;;
69569;SDS011;56781;42.292;23.146;2022-08-11T14:19:04;6.43;;;4.15;;
69569;SDS011;56781;42.292;23.146;2022-08-11T14:21:37;6.88;;;4.28;;
69569;SDS011;56781;42.292;23.146;2022-08-11T14:24:35;5.53;;;3.80;;
69569;SDS011;56781;42.292;23.146;2022-08-11T14:27:10;5.93;;;3.90;;
69569;SDS011;56781;42.292;23.146;2022-08-11T14:29:58;6.40;;;3.70;;
69569;SDS011;56781;42.292;23.146;2022-08-11T14:32:25;6.18;;;3.88;;
69569;SDS011;56781;42.292;23.146;2022-08-11T14:34:53;6.65;;;3.90;;
69569;SDS011;56781;42.292;23.146;2022-08-11T14:37:21;5.25;;;3.78;;
69569;SDS011;56781;42.292;23.146;2022-08-11T14:39:55;5.83;;;3.40;;
69569;SDS011;56781;42.292;23.146;2022-08-11T14:42:29;5.25;;;3.40;;
69569;SDS011;56781;42.292;23.146;2022-08-11T14:45:15;5.93;;;3.70;;
69569;SDS011;56781;42.292;23.146;2022-08-11T14:48:21;5.07;;;3.50;;
69569;SDS011;56781;42.292;23.146;2022-08-11T14:50:48;6.22;;;4.00;;
69569;SDS011;56781;42.292;23.146;2022-08-11T14:53:16;5.07;;;3.40;;
69569;SDS011;56781;42.292;23.146;2022-08-11T14:55:44;5.93;;;3.70;;
69569;SDS011;56781;42.292;23.146;2022-08-11T14:58:30;5.95;;;3.90;;
69569;SDS011;56781;42.292;23.146;2022-08-11T15:00:59;6.60;;;3.85;;
69569;SDS011;56781;42.292;23.146;2022-08-11T15:03:29;5.80;;;3.97;;
69569;SDS011;56781;42.292;23.146;2022-08-11T15:05:59;5.47;;;3.53;;
69569;SDS011;56781;42.292;23.146;2022-08-11T15:08:28;8.40;;;3.97;;
69569;SDS011;56781;42.292;23.146;2022-08-11T15:11:16;6.07;;;3.45;;
69569;SDS011;56781;42.292;23.146;2022-08-11T15:14:04;5.60;;;3.70;;
69569;SDS011;56781;42.292;23.146;2022-08-11T15:16:33;7.43;;;3.78;;
69569;SDS011;56781;42.292;23.146;2022-08-11T15:19:21;6.07;;;3.70;;
69569;SDS011;56781;42.292;23.146;2022-08-11T15:21:50;5.38;;;3.53;;
69569;SDS011;56781;42.292;23.146;2022-08-11T15:24:36;5.35;;;3.78;;
69569;SDS011;56781;42.292;23.146;2022-08-11T15:27:03;5.53;;;3.70;;
69569;SDS011;56781;42.292;23.146;2022-08-11T15:29:53;6.90;;;3.85;;
69569;SDS011;56781;42.292;23.146;2022-08-11T15:33:00;6.97;;;3.90;;
69569;SDS011;56781;42.292;23.146;2022-08-11T15:35:50;7.20;;;3.72;;
69569;SDS011;56781;42.292;23.146;2022-08-11T15:38:41;5.97;;;3.83;;
69569;SDS011;56781;42.292;23.146;2022-08-11T15:41:14;6.20;;;3.83;;
69569;SDS011;56781;42.292;23.146;2022-08-11T15:44:02;6.57;;;3.75;;
69569;SDS011;56781;42.292;23.146;2022-08-11T15:47:13;6.13;;;3.70;;
69569;SDS011;56781;42.292;23.146;2022-08-11T15:49:43;6.70;;;4.00;;
69569;SDS011;56781;42.292;23.146;2022-08-11T15:52:34;6.75;;;4.50;;
69569;SDS011;56781;42.292;23.146;2022-08-11T15:55:09;7.82;;;4.68;;
69569;SDS011;56781;42.292;23.146;2022-08-11T15:57:36;8.27;;;4.80;;
69569;SDS011;56781;42.292;23.146;2022-08-11T16:00:24;6.93;;;4.20;;
69569;SDS011;56781;42.292;23.146;2022-08-11T16:03:10;6.13;;;3.95;;
69569;SDS011;56781;42.292;23.146;2022-08-11T16:06:17;7.13;;;4.85;;
69569;SDS011;56781;42.292;23.146;2022-08-11T16:08:49;6.72;;;4.60;;
69569;SDS011;56781;42.292;23.146;2022-08-11T16:11:21;7.78;;;5.10;;
69569;SDS011;56781;42.292;23.146;2022-08-11T16:13:50;6.77;;;4.67;;
69569;SDS011;56781;42.292;23.146;2022-08-11T16:16:37;7.35;;;5.07;;
69569;SDS011;56781;42.292;23.146;2022-08-11T16:19:05;11.88;;;6.93;;
69569;SDS011;56781;42.292;23.146;2022-08-11T16:21:36;8.48;;;5.43;;
69569;SDS011;56781;42.292;23.146;2022-08-11T16:24:06;5.90;;;4.45;;
69569;SDS011;56781;42.292;23.146;2022-08-11T16:26:56;10.53;;;7.10;;
69569;SDS011;56781;42.292;23.146;2022-08-11T16:29:39;8.07;;;5.75;;
69569;SDS011;56781;42.292;23.146;2022-08-11T16:32:14;7.25;;;5.35;;
69569;SDS011;56781;42.292;23.146;2022-08-11T16:34:44;6.47;;;4.72;;
69569;SDS011;56781;42.292;23.146;2022-08-11T16:37:36;8.70;;;4.93;;
69569;SDS011;56781;42.292;23.146;2022-08-11T16:40:30;7.10;;;4.30;;
69569;SDS011;56781;42.292;23.146;2022-08-11T16:42:59;7.03;;;4.53;;
69569;SDS011;56781;42.292;23.146;2022-08-11T16:45:47;8.23;;;5.68;;
69569;SDS011;56781;42.292;23.146;2022-08-11T16:48:33;7.07;;;4.93;;
69569;SDS011;56781;42.292;23.146;2022-08-11T16:51:09;8.07;;;4.90;;
69569;SDS011;56781;42.292;23.146;2022-08-11T16:53:37;9.33;;;6.00;;
69569;SDS011;56781;42.292;23.146;2022-08-11T16:56:26;8.68;;;6.70;;
69569;SDS011;56781;42.292;23.146;2022-08-11T16:58:58;9.20;;;5.32;;
69569;SDS011;56781;42.292;23.146;2022-08-11T17:01:52;6.65;;;3.90;;
69569;SDS011;56781;42.292;23.146;2022-08-11T17:05:01;5.82;;;4.00;;
69569;SDS011;56781;42.292;23.146;2022-08-11T17:07:52;5.97;;;3.80;;
69569;SDS011;56781;42.292;23.146;2022-08-11T17:10:55;6.15;;;3.47;;
69569;SDS011;56781;42.292;23.146;2022-08-11T17:13:49;5.97;;;3.90;;
69569;SDS011;56781;42.292;23.146;2022-08-11T17:16:32;6.72;;;4.00;;
69569;SDS011;56781;42.292;23.146;2022-08-11T17:19:03;8.73;;;4.18;;
69569;SDS011;56781;42.292;23.146;2022-08-11T17:21:47;5.63;;;3.73;;
69569;SDS011;56781;42.292;23.146;2022-08-11T17:24:34;7.72;;;4.20;;
69569;SDS011;56781;42.292;23.146;2022-08-11T17:27:04;6.05;;;4.05;;
69569;SDS011;56781;42.292;23.146;2022-08-11T17:29:37;8.15;;;3.92;;
69569;SDS011;56781;42.292;23.146;2022-08-11T17:32:42;7.10;;;4.35;;
69569;SDS011;56781;42.292;23.146;2022-08-11T17:35:29;6.03;;;4.00;;
69569;SDS011;56781;42.292;23.146;2022-08-11T17:38:01;7.80;;;4.40;;
69569;SDS011;56781;42.292;23.146;2022-08-11T17:40:31;7.82;;;4.65;;
69569;SDS011;56781;42.292;23.146;2022-08-11T17:43:02;7.57;;;4.45;;
69569;SDS011;56781;42.292;23.146;2022-08-11T17:45:50;7.25;;;4.57;;
69569;SDS011;56781;42.292;23.146;2022-08-11T17:48:36;7.10;;;3.90;;
69569;SDS011;56781;42.292;23.146;2022-08-11T17:51:13;7.15;;;4.10;;
69569;SDS011;56781;42.292;23.146;2022-08-11T17:54:03;7.25;;;4.38;;
69569;SDS011;56781;42.292;23.146;2022-08-11T17:56:51;7.72;;;4.18;;
69569;SDS011;56781;42.292;23.146;2022-08-11T17:59:54;7.43;;;4.00;;
69569;SDS011;56781;42.292;23.146;2022-08-11T18:02:34;6.03;;;4.03;;
69569;SDS011;56781;42.292;23.146;2022-08-11T18:05:23;5.85;;;3.85;;
69569;SDS011;56781;42.292;23.146;2022-08-11T18:07:54;5.72;;;3.83;;
69569;SDS011;56781;42.292;23.146;2022-08-11T18:10:41;6.57;;;4.03;;
69569;SDS011;56781;42.292;23.146;2022-08-11T18:13:36;5.45;;;3.70;;
69569;SDS011;56781;42.292;23.146;2022-08-11T18:16:24;6.23;;;3.90;;
69569;SDS011;56781;42.292;23.146;2022-08-11T18:19:10;7.03;;;3.72;;
69569;SDS011;56781;42.292;23.146;2022-08-11T18:22:04;6.07;;;4.15;;
69569;SDS011;56781;42.292;23.146;2022-08-11T18:24:53;5.03;;;3.33;;
69569;SDS011;56781;42.292;23.146;2022-08-11T18:27:43;6.07;;;3.90;;
69569;SDS011;56781;42.292;23.146;2022-08-11T18:30:30;5.93;;;3.77;;
69569;SDS011;56781;42.292;23.146;2022-08-11T18:33:32;5.90;;;3.83;;
69569;SDS011;56781;42.292;23.146;2022-08-11T18:36:34;6.53;;;4.18;;
69569;SDS011;56781;42.292;23.146;2022-08-11T18:39:49;7.00;;;3.65;;
69569;SDS011;56781;42.292;23.146;2022-08-11T18:42:40;5.53;;;3.60;;
69569;SDS011;56781;42.292;23.146;2022-08-11T18:45:28;6.23;;;3.90;;
69569;SDS011;56781;42.292;23.146;2022-08-11T18:48:31;6.50;;;3.67;;
69569;SDS011;56781;42.292;23.146;2022-08-11T18:51:21;6.32;;;3.60;;
69569;SDS011;56781;42.292;23.146;2022-08-11T18:54:09;6.50;;;3.72;;
69569;SDS011;56781;42.292;23.146;2022-08-11T18:56:57;6.35;;;3.75;;
69569;SDS011;56781;42.292;23.146;2022-08-11T18:59:46;5.70;;;3.83;;
69569;SDS011;56781;42.292;23.146;2022-08-11T19:02:37;4.65;;;3.20;;
69569;SDS011;56781;42.292;23.146;2022-08-11T19:05:24;5.80;;;3.63;;
69569;SDS011;56781;42.292;23.146;2022-08-11T19:08:35;5.38;;;3.47;;
69569;SDS011;56781;42.292;23.146;2022-08-11T19:11:23;6.68;;;3.50;;
69569;SDS011;56781;42.292;23.146;2022-08-11T19:14:10;5.40;;;3.40;;
69569;SDS011;56781;42.292;23.146;2022-08-11T19:17:00;6.50;;;3.42;;